createdAt,value
2018-02-12T00:01:42.499Z,1.20
2018-02-12T00:04:11.031Z,1.20
2018-02-12T00:06:38.678Z,1.20
2018-02-12T00:09:06.353Z,1.30
2018-02-12T00:11:33.885Z,1.20
2018-02-12T00:14:01.505Z,1.30
2018-02-12T00:16:29.035Z,1.40
2018-02-12T00:18:56.593Z,1.40
2018-02-12T00:21:24.112Z,1.40
2018-02-12T00:23:51.651Z,1.40
2018-02-12T00:26:19.275Z,1.50
2018-02-12T00:28:46.852Z,1.50
2018-02-12T00:31:14.361Z,1.40
2018-02-12T00:33:41.927Z,1.40
2018-02-12T00:36:09.456Z,1.40
2018-02-12T00:38:37.776Z,1.40
2018-02-12T00:41:05.331Z,1.40
2018-02-12T00:43:32.901Z,1.40
2018-02-12T00:46:00.995Z,1.50
2018-02-12T00:48:29.003Z,1.70
2018-02-12T00:50:57.575Z,1.70
2018-02-12T00:53:25.165Z,1.70
2018-02-12T00:55:52.915Z,1.80
2018-02-12T00:58:21.453Z,1.80
2018-02-12T01:00:49.004Z,1.80
2018-02-12T01:03:16.638Z,1.90
2018-02-12T01:05:44.180Z,1.80
2018-02-12T01:08:12.519Z,1.80
2018-02-12T01:10:40.048Z,1.70
2018-02-12T01:13:07.620Z,1.80
2018-02-12T01:15:35.353Z,1.70
2018-02-12T01:18:03.657Z,1.70
2018-02-12T01:20:31.207Z,1.70
2018-02-12T01:22:59.098Z,1.70
2018-02-12T01:25:26.856Z,1.70
2018-02-12T01:27:54.704Z,1.60
2018-02-12T01:30:23.298Z,1.60
2018-02-12T01:32:50.869Z,1.60
2018-02-12T01:35:18.411Z,1.60
2018-02-12T01:37:45.986Z,1.70
2018-02-12T01:40:13.687Z,1.70
2018-02-12T01:42:41.493Z,1.70
2018-02-12T01:45:09.910Z,1.70
2018-02-12T01:47:37.546Z,1.70
2018-02-12T01:50:17.140Z,1.70
2018-02-12T01:52:44.682Z,1.70
2018-02-12T01:55:12.195Z,1.70
2018-02-12T01:57:40.792Z,1.70
2018-02-12T02:00:08.370Z,1.70
2018-02-12T02:02:35.882Z,1.70
2018-02-12T02:05:03.490Z,1.60
2018-02-12T02:07:31.051Z,1.60
2018-02-12T02:09:58.596Z,1.60
2018-02-12T02:12:26.172Z,1.60
2018-02-12T02:14:53.730Z,1.60
2018-02-12T02:17:21.296Z,1.60
2018-02-12T02:19:49.202Z,1.60
2018-02-12T02:22:16.727Z,1.60
2018-02-12T02:24:44.289Z,1.60
2018-02-12T02:27:11.841Z,1.60
2018-02-12T02:29:39.383Z,1.60
2018-02-12T02:32:07.194Z,1.60
2018-02-12T02:34:34.707Z,1.60
2018-02-12T02:37:02.982Z,1.60
2018-02-12T02:39:31.396Z,1.60
2018-02-12T02:41:58.936Z,1.60
2018-02-12T02:44:26.819Z,1.60
2018-02-12T02:46:54.474Z,1.60
2018-02-12T02:49:22.060Z,1.60
2018-02-12T02:51:49.594Z,1.50
2018-02-12T02:54:17.186Z,1.50
2018-02-12T02:56:44.861Z,1.50
2018-02-12T02:59:12.487Z,1.50
2018-02-12T03:01:40.039Z,1.60
2018-02-12T03:04:07.597Z,1.50
2018-02-12T03:06:35.111Z,1.50
2018-02-12T03:09:03.256Z,1.50
2018-02-12T03:11:30.791Z,1.50
2018-02-12T03:13:58.376Z,1.50
2018-02-12T03:16:26.044Z,1.50
2018-02-12T03:18:53.588Z,1.60
2018-02-12T03:21:21.295Z,1.50
2018-02-12T03:23:49.991Z,1.60
2018-02-12T03:26:18.593Z,1.60
2018-02-12T03:28:47.107Z,1.60
2018-02-12T03:31:14.886Z,1.60
2018-02-12T03:33:42.944Z,1.60
2018-02-12T03:36:11.190Z,1.60
2018-02-12T03:38:39.509Z,1.60
2018-02-12T03:41:07.035Z,1.60
2018-02-12T03:43:34.554Z,1.60
2018-02-12T03:46:02.071Z,1.70
2018-02-12T03:48:29.640Z,1.60
2018-02-12T03:50:57.164Z,1.60
2018-02-12T03:53:25.450Z,1.60
2018-02-12T03:55:53.739Z,1.60
2018-02-12T03:58:21.276Z,1.60
2018-02-12T04:00:49.564Z,1.60
2018-02-12T04:03:17.088Z,1.60
2018-02-12T04:05:44.779Z,1.60
2018-02-12T04:08:13.131Z,1.60
2018-02-12T04:10:40.671Z,1.60
2018-02-12T04:13:08.192Z,1.60
2018-02-12T04:15:36.076Z,1.70
2018-02-12T04:18:03.714Z,1.70
2018-02-12T04:20:32.148Z,1.70
2018-02-12T04:22:59.691Z,1.70
2018-02-12T04:25:27.266Z,1.60
2018-02-12T04:27:54.999Z,1.60
2018-02-12T04:30:22.696Z,1.60
2018-02-12T04:32:50.637Z,1.70
2018-02-12T04:35:18.623Z,1.70
2018-02-12T04:37:46.556Z,1.70
2018-02-12T04:40:14.465Z,1.70
2018-02-12T04:42:42.151Z,1.60
2018-02-12T04:45:09.921Z,1.70
2018-02-12T04:47:37.639Z,1.60
2018-02-12T04:50:05.545Z,1.70
2018-02-12T04:52:33.890Z,1.60
2018-02-12T04:55:03.078Z,1.60
2018-02-12T04:57:30.724Z,1.60
2018-02-12T04:59:59.424Z,1.60
2018-02-12T05:02:26.990Z,1.60
2018-02-12T05:04:54.556Z,1.60
2018-02-12T05:07:22.079Z,1.60
2018-02-12T05:09:50.346Z,1.60
2018-02-12T05:12:17.950Z,1.60
2018-02-12T05:14:45.496Z,1.60
2018-02-12T05:17:13.251Z,1.60
2018-02-12T05:19:41.527Z,1.60
2018-02-12T05:22:10.327Z,1.60
2018-02-12T05:24:37.846Z,1.60
2018-02-12T05:27:05.546Z,1.60
2018-02-12T05:29:33.855Z,1.50
2018-02-12T05:32:01.366Z,1.50
2018-02-12T05:34:29.033Z,1.50
2018-02-12T05:36:56.619Z,1.50
2018-02-12T05:39:24.331Z,1.50
2018-02-12T05:41:52.670Z,1.50
2018-02-12T05:44:20.238Z,1.50
2018-02-12T05:46:48.221Z,1.40
2018-02-12T05:49:15.761Z,1.40
2018-02-12T05:51:43.284Z,1.30
2018-02-12T05:54:10.899Z,1.20
2018-02-12T05:56:38.418Z,1.20
2018-02-12T05:59:06.718Z,1.30
2018-02-12T06:01:34.278Z,1.30
2018-02-12T06:04:01.791Z,1.30
2018-02-12T06:06:29.394Z,1.30
2018-02-12T06:08:56.958Z,1.30
2018-02-12T06:11:24.458Z,1.20
2018-02-12T06:13:51.979Z,1.10
2018-02-12T06:16:19.546Z,1.00
2018-02-12T06:18:47.096Z,0.90
2018-02-12T06:21:14.667Z,0.90
2018-02-12T06:23:42.180Z,0.80
2018-02-12T06:26:10.762Z,0.80
2018-02-12T06:28:38.266Z,0.80
2018-02-12T06:31:05.772Z,0.80
2018-02-12T06:33:33.386Z,0.90
2018-02-12T06:36:00.895Z,0.90
2018-02-12T06:38:28.390Z,0.90
2018-02-12T06:40:56.673Z,0.90
2018-02-12T06:43:24.981Z,0.90
2018-02-12T06:45:52.482Z,0.90
2018-02-12T06:48:19.998Z,0.90
2018-02-12T06:50:47.497Z,0.90
2018-02-12T06:53:15.102Z,0.90
2018-02-12T06:55:42.681Z,0.90
2018-02-12T06:58:10.199Z,1.00
2018-02-12T07:00:38.473Z,1.00
2018-02-12T07:03:06.742Z,1.00
2018-02-12T07:05:34.250Z,1.00
2018-02-12T07:08:01.753Z,1.00
2018-02-12T07:10:30.759Z,1.00
2018-02-12T07:12:58.260Z,1.00
2018-02-12T07:15:25.770Z,1.00
2018-02-12T07:17:53.360Z,1.00
2018-02-12T07:20:21.638Z,1.10
2018-02-12T07:22:49.202Z,1.10
2018-02-12T07:25:16.723Z,1.20
2018-02-12T07:27:44.226Z,1.10
2018-02-12T07:30:11.744Z,1.20
2018-02-12T07:32:39.258Z,1.20
2018-02-12T07:35:06.810Z,1.20
2018-02-12T07:37:34.365Z,1.20
2018-02-12T07:40:01.875Z,1.20
2018-02-12T07:42:29.473Z,1.30
2018-02-12T07:44:57.745Z,1.40
2018-02-12T07:47:26.779Z,1.40
2018-02-12T07:49:54.315Z,1.40
2018-02-12T07:52:21.836Z,1.50
2018-02-12T07:54:50.872Z,1.70
2018-02-12T07:57:18.382Z,1.70
2018-02-12T07:59:45.885Z,1.70
2018-02-12T08:02:14.167Z,1.90
2018-02-12T08:04:41.684Z,1.90
2018-02-12T08:07:09.193Z,1.90
2018-02-12T08:09:36.746Z,1.90
2018-02-12T08:12:04.345Z,1.90
2018-02-12T08:14:31.836Z,1.90
2018-02-12T08:16:59.354Z,1.90
2018-02-12T08:19:26.854Z,1.90
2018-02-12T08:21:54.378Z,2.00
2018-02-12T08:24:21.907Z,2.00
2018-02-12T08:26:49.462Z,1.90
2018-02-12T08:29:17.726Z,2.00
2018-02-12T08:31:46.021Z,2.00
2018-02-12T08:34:13.547Z,2.00
2018-02-12T08:36:41.162Z,2.00
2018-02-12T08:39:08.675Z,2.10
2018-02-12T08:41:36.262Z,2.10
2018-02-12T08:44:03.822Z,2.10
2018-02-12T08:46:31.328Z,2.20
2018-02-12T08:48:58.849Z,2.20
2018-02-12T08:51:26.426Z,2.20
2018-02-12T08:53:53.934Z,2.10
2018-02-12T08:56:21.524Z,2.20
2018-02-12T08:58:49.044Z,2.30
2018-02-12T09:01:16.648Z,2.40
2018-02-12T09:03:44.154Z,2.30
2018-02-12T09:06:11.784Z,2.30
2018-02-12T09:08:39.303Z,2.10
2018-02-12T09:11:07.610Z,2.40
2018-02-12T09:13:35.142Z,2.40
2018-02-12T09:16:02.726Z,3.40
2018-02-12T09:18:31.017Z,3.50
2018-02-12T09:20:58.521Z,3.50
2018-02-12T09:23:26.042Z,4.30
2018-02-12T09:25:53.600Z,5.00
2018-02-12T09:28:21.138Z,5.70
2018-02-12T09:30:49.431Z,7.30
2018-02-12T09:33:16.940Z,7.30
2018-02-12T09:35:44.449Z,6.50
2018-02-12T09:38:12.005Z,5.50
2018-02-12T09:40:40.299Z,3.90
2018-02-12T09:43:07.802Z,3.90
2018-02-12T09:45:35.298Z,3.80
2018-02-12T09:48:03.565Z,4.40
2018-02-12T09:50:31.854Z,4.00
2018-02-12T09:52:59.395Z,4.00
2018-02-12T09:55:26.929Z,3.50
2018-02-12T09:57:54.426Z,3.00
2018-02-12T10:00:22.701Z,2.60
2018-02-12T10:02:50.984Z,2.80
2018-02-12T10:05:18.550Z,2.70
2018-02-12T10:07:46.062Z,2.90
2018-02-12T10:10:13.688Z,2.70
2018-02-12T10:12:41.194Z,2.70
2018-02-12T10:15:09.487Z,2.90
2018-02-12T10:17:37.767Z,2.90
2018-02-12T10:20:06.066Z,2.80
2018-02-12T10:22:33.640Z,2.80
2018-02-12T10:25:01.149Z,2.70
2018-02-12T10:27:28.657Z,2.50
2018-02-12T10:29:56.163Z,2.50
2018-02-12T10:32:24.479Z,3.30
2018-02-12T10:34:52.038Z,3.40
2018-02-12T10:37:20.515Z,4.40
2018-02-12T10:39:48.813Z,4.60
2018-02-12T10:42:16.330Z,4.70
2018-02-12T10:44:45.336Z,4.80
2018-02-12T10:47:13.639Z,4.20
2018-02-12T10:49:41.152Z,4.10
2018-02-12T10:52:08.686Z,3.90
2018-02-12T10:54:36.181Z,3.80
2018-02-12T10:57:03.702Z,3.80
2018-02-12T10:59:31.238Z,3.90
2018-02-12T11:01:58.813Z,4.20
2018-02-12T11:04:26.318Z,4.10
2018-02-12T11:06:53.869Z,4.50
2018-02-12T11:09:21.602Z,4.90
2018-02-12T11:11:49.124Z,4.70
2018-02-12T11:14:17.441Z,4.10
2018-02-12T11:16:45.703Z,3.90
2018-02-12T11:19:13.267Z,3.90
2018-02-12T11:21:40.818Z,3.70
2018-02-12T11:24:08.386Z,3.80
2018-02-12T11:26:35.890Z,4.10
2018-02-12T11:29:03.499Z,4.00
2018-02-12T11:31:31.001Z,4.00
2018-02-12T11:33:58.515Z,4.20
2018-02-12T11:36:26.024Z,4.60
2018-02-12T11:38:53.631Z,4.70
2018-02-12T11:41:21.204Z,4.90
2018-02-12T11:43:48.710Z,5.00
2018-02-12T11:46:16.221Z,4.70
2018-02-12T11:48:43.763Z,5.20
2018-02-12T11:51:12.029Z,5.40
2018-02-12T11:53:39.541Z,5.40
2018-02-12T11:56:07.085Z,5.10
2018-02-12T11:58:34.603Z,4.80
2018-02-12T12:01:02.139Z,4.80
2018-02-12T12:03:29.651Z,4.80
2018-02-12T12:05:57.196Z,4.70
2018-02-12T12:08:25.489Z,4.20
2018-02-12T12:10:52.994Z,4.20
2018-02-12T12:13:20.643Z,4.20
2018-02-12T12:15:48.287Z,4.10
2018-02-12T12:18:15.805Z,4.30
2018-02-12T12:20:44.087Z,4.50
2018-02-12T12:23:11.678Z,4.50
2018-02-12T12:25:39.197Z,4.60
2018-02-12T12:28:06.874Z,4.30
2018-02-12T12:30:35.153Z,4.10
2018-02-12T12:33:03.464Z,4.10
2018-02-12T12:35:30.970Z,4.10
2018-02-12T12:37:58.572Z,4.20
2018-02-12T12:40:26.097Z,4.50
2018-02-12T12:42:53.958Z,4.70
2018-02-12T12:45:21.464Z,4.70
2018-02-12T12:47:49.068Z,4.70
2018-02-12T12:50:16.682Z,4.50
2018-02-12T12:52:45.067Z,4.50
2018-02-12T12:55:12.625Z,4.40
2018-02-12T12:57:40.128Z,4.40
2018-02-12T13:00:07.660Z,4.40
2018-02-12T13:02:35.163Z,4.60
2018-02-12T13:05:02.672Z,4.60
2018-02-12T13:07:30.166Z,4.50
2018-02-12T13:09:57.770Z,4.30
2018-02-12T13:12:26.054Z,4.00
2018-02-12T13:14:54.335Z,4.10
2018-02-12T13:17:22.614Z,4.10
2018-02-12T13:19:50.995Z,4.20
2018-02-12T13:22:18.514Z,4.20
2018-02-12T13:24:46.141Z,4.20
2018-02-12T13:27:13.644Z,4.30
2018-02-12T13:29:41.160Z,4.50
2018-02-12T13:32:08.697Z,4.70
2018-02-12T13:34:36.993Z,5.00
2018-02-12T13:37:04.543Z,5.00
2018-02-12T13:39:32.043Z,5.00
2018-02-12T13:41:59.559Z,5.00
2018-02-12T13:44:27.110Z,4.80
2018-02-12T13:46:55.415Z,4.60
2018-02-12T13:49:22.910Z,4.60
2018-02-12T13:51:50.409Z,4.70
2018-02-12T13:54:17.965Z,4.70
2018-02-12T13:56:46.257Z,4.90
2018-02-12T13:59:13.758Z,4.80
2018-02-12T14:01:41.247Z,4.80
2018-02-12T14:04:09.546Z,5.00
2018-02-12T14:06:37.111Z,4.90
2018-02-12T14:09:04.691Z,4.90
2018-02-12T14:11:32.230Z,5.00
2018-02-12T14:13:59.768Z,4.90
2018-02-12T14:16:28.046Z,4.90
2018-02-12T14:18:56.313Z,4.80
2018-02-12T14:21:23.826Z,4.80
2018-02-12T14:23:51.326Z,4.70
2018-02-12T14:26:18.930Z,4.60
2018-02-12T14:28:46.485Z,4.50
2018-02-12T14:31:14.014Z,4.30
2018-02-12T14:33:41.522Z,4.10
2018-02-12T14:36:09.031Z,3.90
2018-02-12T14:38:36.611Z,3.80
2018-02-12T14:41:04.892Z,3.60
2018-02-12T14:43:33.165Z,3.60
2018-02-12T14:46:01.608Z,3.50
2018-02-12T14:48:29.104Z,3.50
2018-02-12T14:50:57.384Z,3.40
2018-02-12T14:53:25.671Z,3.40
2018-02-12T14:55:53.203Z,3.40
2018-02-12T14:58:20.792Z,3.40
2018-02-12T15:00:49.082Z,3.00
2018-02-12T15:03:16.634Z,3.00
2018-02-12T15:05:44.139Z,2.60
2018-02-12T15:08:11.763Z,2.50
2018-02-12T15:10:39.322Z,2.10
2018-02-12T15:13:06.884Z,1.90
2018-02-12T15:15:34.375Z,1.90
2018-02-12T15:18:01.906Z,1.80
2018-02-12T15:20:29.456Z,1.70
2018-02-12T15:22:56.988Z,1.50
2018-02-12T15:25:25.253Z,1.60
2018-02-12T15:27:52.776Z,1.60
2018-02-12T15:30:20.278Z,1.50
2018-02-12T15:32:47.803Z,1.50
2018-02-12T15:35:15.339Z,1.60
2018-02-12T15:37:42.854Z,1.60
2018-02-12T15:40:10.368Z,1.50
2018-02-12T15:42:37.909Z,1.50
2018-02-12T15:45:05.558Z,1.60
2018-02-12T15:47:33.860Z,1.50
2018-02-12T15:50:01.409Z,1.50
2018-02-12T15:52:28.991Z,1.50
2018-02-12T15:54:56.499Z,1.50
2018-02-12T15:57:24.098Z,1.50
2018-02-12T15:59:51.778Z,1.40
2018-02-12T16:02:19.349Z,1.30
2018-02-12T16:04:46.881Z,1.20
2018-02-12T16:07:14.374Z,1.10
2018-02-12T16:09:42.004Z,1.10
2018-02-12T16:12:09.514Z,1.00
2018-02-12T16:14:37.030Z,0.90
2018-02-12T16:17:04.548Z,0.90
2018-02-12T16:19:32.078Z,0.80
2018-02-12T16:21:59.578Z,0.80
2018-02-12T16:24:28.182Z,0.80
2018-02-12T16:26:55.710Z,0.80
2018-02-12T16:29:23.280Z,0.90
2018-02-12T16:31:51.617Z,0.80
2018-02-12T16:34:19.250Z,0.80
2018-02-12T16:36:46.802Z,0.80
2018-02-12T16:39:14.449Z,0.70
2018-02-12T16:41:42.739Z,0.70
2018-02-12T16:44:11.125Z,0.70
2018-02-12T16:46:38.647Z,0.60
2018-02-12T16:49:06.236Z,0.60
2018-02-12T16:51:34.630Z,0.70
2018-02-12T16:54:02.310Z,0.70
2018-02-12T16:56:29.819Z,0.70
2018-02-12T16:58:59.270Z,0.70
2018-02-12T17:01:26.803Z,0.70
2018-02-12T17:03:55.242Z,0.60
2018-02-12T17:06:22.876Z,0.60
2018-02-12T17:08:50.438Z,0.60
2018-02-12T17:11:18.027Z,0.50
2018-02-12T17:13:45.667Z,0.50
2018-02-12T17:16:13.199Z,0.40
2018-02-12T17:18:40.786Z,0.30
2018-02-12T17:21:08.328Z,0.20
2018-02-12T17:23:35.978Z,0.20
2018-02-12T17:26:04.386Z,0.10
2018-02-12T17:28:31.883Z,0.10
2018-02-12T17:30:59.526Z,0.10
2018-02-12T17:33:27.050Z,0.10
2018-02-12T17:35:54.558Z,0.00
2018-02-12T17:38:22.059Z,0.00
2018-02-12T17:40:49.627Z,-0.10
2018-02-12T17:43:17.936Z,-0.10
2018-02-12T17:45:46.363Z,-0.20
2018-02-12T17:48:14.387Z,-0.20
2018-02-12T17:50:42.074Z,-0.30
2018-02-12T17:53:09.642Z,-0.30
2018-02-12T17:55:37.648Z,-0.30
2018-02-12T17:58:05.203Z,-0.40
2018-02-12T18:00:33.028Z,-0.40
2018-02-12T18:03:00.811Z,-0.30
2018-02-12T18:05:28.645Z,-0.40
2018-02-12T18:07:56.585Z,-0.30
2018-02-12T18:10:24.886Z,-0.40
2018-02-12T18:12:53.343Z,-0.50
2018-02-12T18:15:20.915Z,-0.50
2018-02-12T18:17:48.896Z,-0.50
2018-02-12T18:20:17.235Z,-0.50
2018-02-12T18:22:45.527Z,-0.50
2018-02-12T18:25:13.814Z,-0.60
2018-02-12T18:27:41.320Z,-0.60
2018-02-12T18:30:08.894Z,-0.60
2018-02-12T18:32:42.183Z,-0.60
2018-02-12T18:35:09.683Z,-0.60
2018-02-12T18:37:38.054Z,-0.60
2018-02-12T18:40:06.348Z,-0.70
2018-02-12T18:42:33.882Z,-0.70
2018-02-12T18:45:01.475Z,-0.70
2018-02-12T18:47:29.025Z,-0.70
2018-02-12T18:49:56.694Z,-0.80
2018-02-12T18:52:24.263Z,-0.70
2018-02-12T18:54:51.802Z,-0.70
2018-02-12T18:57:19.388Z,-0.70
2018-02-12T18:59:46.940Z,-0.70
2018-02-12T19:02:14.526Z,-0.70
2018-02-12T19:04:42.281Z,-0.70
2018-02-12T19:07:09.829Z,-0.60
2018-02-12T19:09:37.386Z,-0.60
2018-02-12T19:12:04.889Z,-0.60
2018-02-12T19:14:32.530Z,-0.60
2018-02-12T19:17:00.386Z,-0.60
2018-02-12T19:19:27.891Z,-0.60
2018-02-12T19:21:55.409Z,-0.60
2018-02-12T19:24:22.914Z,-0.50
2018-02-12T19:26:51.972Z,-0.50
2018-02-12T19:29:19.497Z,-0.50
2018-02-12T19:31:47.809Z,-0.50
2018-02-12T19:34:15.344Z,-0.50
2018-02-12T19:36:43.020Z,-0.60
2018-02-12T19:39:10.553Z,-0.60
2018-02-12T19:41:39.037Z,-0.70
2018-02-12T19:44:06.777Z,-0.70
2018-02-12T19:46:34.593Z,-0.60
2018-02-12T19:49:02.107Z,-0.60
2018-02-12T19:51:29.920Z,-0.60
2018-02-12T19:53:57.932Z,-0.70
2018-02-12T19:56:26.479Z,-0.70
2018-02-12T19:58:54.159Z,-0.70
2018-02-12T20:01:22.161Z,-0.70
2018-02-12T20:03:49.908Z,-0.70
2018-02-12T20:06:18.249Z,-0.80
2018-02-12T20:08:45.802Z,-0.80
2018-02-12T20:11:13.479Z,-0.80
2018-02-12T20:13:41.052Z,-0.80
2018-02-12T20:16:08.577Z,-0.80
2018-02-12T20:18:36.761Z,-0.80
2018-02-12T20:21:04.685Z,-0.90
2018-02-12T20:23:33.914Z,-0.80
2018-02-12T20:26:02.278Z,-0.90
2018-02-12T20:28:29.822Z,-0.80
2018-02-12T20:30:57.882Z,-0.80
2018-02-12T20:33:26.473Z,-0.90
2018-02-12T20:35:54.428Z,-0.90
2018-02-12T20:38:22.069Z,-1.00
2018-02-12T20:40:50.041Z,-1.10
2018-02-12T20:43:18.741Z,-1.10
2018-02-12T20:45:47.134Z,-1.20
2018-02-12T20:48:14.759Z,-1.20
2018-02-12T20:50:43.093Z,-1.20
2018-02-12T20:53:10.696Z,-1.20
2018-02-12T20:55:38.255Z,-1.20
2018-02-12T20:58:05.875Z,-1.20
2018-02-12T21:00:33.372Z,-1.20
2018-02-12T21:03:00.978Z,-1.20
2018-02-12T21:05:28.610Z,-1.30
2018-02-12T21:07:56.172Z,-1.30
2018-02-12T21:10:23.728Z,-1.30
2018-02-12T21:12:51.309Z,-1.40
2018-02-12T21:15:18.827Z,-1.50
2018-02-12T21:17:47.119Z,-1.60
2018-02-12T21:20:14.635Z,-1.60
2018-02-12T21:22:42.278Z,-1.50
2018-02-12T21:25:09.860Z,-1.50
2018-02-12T21:27:37.396Z,-1.50
2018-02-12T21:30:04.886Z,-1.50
2018-02-12T21:32:32.414Z,-1.50
2018-02-12T21:34:59.930Z,-1.50
2018-02-12T21:37:28.278Z,-1.40
2018-02-12T21:39:55.805Z,-1.40
2018-02-12T21:42:23.346Z,-1.30
2018-02-12T21:44:50.922Z,-1.30
2018-02-12T21:47:18.449Z,-1.30
2018-02-12T21:49:46.732Z,-1.30
2018-02-12T21:52:15.025Z,-1.30
2018-02-12T21:54:42.625Z,-1.40
2018-02-12T21:57:10.160Z,-1.40
2018-02-12T21:59:37.678Z,-1.40
2018-02-12T22:02:05.972Z,-1.30
2018-02-12T22:04:33.960Z,-1.40
2018-02-12T22:07:01.543Z,-1.30
2018-02-12T22:09:29.133Z,-1.30
2018-02-12T22:11:56.905Z,-1.30
2018-02-12T22:14:24.498Z,-1.30
2018-02-12T22:16:52.119Z,-1.30
2018-02-12T22:19:19.746Z,-1.40
2018-02-12T22:21:47.432Z,-1.40
2018-02-12T22:24:15.041Z,-1.40
2018-02-12T22:26:43.528Z,-1.30
2018-02-12T22:29:11.051Z,-1.30
2018-02-12T22:31:38.565Z,-1.30
2018-02-12T22:34:06.109Z,-1.30
2018-02-12T22:36:33.609Z,-1.30
2018-02-12T22:39:01.148Z,-1.20
2018-02-12T22:41:28.689Z,-1.30
2018-02-12T22:43:56.259Z,-1.40
2018-02-12T22:46:23.774Z,-1.40
2018-02-12T22:48:51.310Z,-1.30
2018-02-12T22:51:18.842Z,-1.40
2018-02-12T22:53:46.363Z,-1.50
2018-02-12T22:56:14.657Z,-1.50
2018-02-12T22:58:42.203Z,-1.60
2018-02-12T23:01:10.487Z,-1.30
2018-02-12T23:03:38.751Z,-1.30
2018-02-12T23:06:07.035Z,-1.30
2018-02-12T23:08:35.334Z,-1.40
2018-02-12T23:11:02.847Z,-1.40
2018-02-12T23:13:30.453Z,-1.40
2018-02-12T23:15:57.965Z,-1.40
2018-02-12T23:18:26.743Z,-1.30
2018-02-12T23:20:54.496Z,-1.40
2018-02-12T23:23:22.318Z,-1.30
2018-02-12T23:25:50.661Z,-1.20
2018-02-12T23:28:18.515Z,-1.30
2018-02-12T23:30:46.262Z,-1.20
2018-02-12T23:33:13.825Z,-1.30
2018-02-12T23:35:41.676Z,-1.20
2018-02-12T23:38:09.511Z,-1.30
2018-02-12T23:40:38.943Z,-1.30
2018-02-12T23:43:06.452Z,-1.30
2018-02-12T23:45:34.062Z,-1.30
2018-02-12T23:48:02.337Z,-1.20
2018-02-12T23:50:30.606Z,-1.30
2018-02-12T23:52:58.914Z,-1.30
2018-02-12T23:55:26.445Z,-1.30
2018-02-12T23:57:54.744Z,-1.30
